createdAt,value
2019-05-07T00:00:53.205Z,4.07
2019-05-07T00:05:39.677Z,3.97
2019-05-07T00:10:24.965Z,3.87
2019-05-07T00:15:09.858Z,4.40
2019-05-07T00:19:56.081Z,4.00
2019-05-07T00:24:42.700Z,4.00
2019-05-07T00:29:31.970Z,4.20
2019-05-07T00:34:21.869Z,4.20
2019-05-07T00:39:42.291Z,4.27
2019-05-07T00:44:27.016Z,4.30
2019-05-07T00:49:12.689Z,4.00
2019-05-07T00:53:58.691Z,4.33
2019-05-07T00:58:48.723Z,4.47
2019-05-07T01:03:33.759Z,4.00
2019-05-07T01:08:18.603Z,3.83
2019-05-07T01:13:03.379Z,4.10
2019-05-07T01:17:48.169Z,4.43
2019-05-07T01:22:33.166Z,4.47
2019-05-07T01:27:17.754Z,4.03
2019-05-07T01:32:12.721Z,5.67
2019-05-07T01:36:58.077Z,4.00
2019-05-07T01:41:43.350Z,4.63
2019-05-07T01:46:28.542Z,4.77
2019-05-07T01:51:13.283Z,5.07
2019-05-07T01:55:58.475Z,4.37
2019-05-07T02:00:44.155Z,4.30
2019-05-07T02:05:38.280Z,4.40
2019-05-07T02:10:42.771Z,4.57
2019-05-07T02:15:27.695Z,4.70
2019-05-07T02:20:13.170Z,4.53
2019-05-07T02:24:58.093Z,5.40
2019-05-07T02:29:43.163Z,4.57
2019-05-07T02:34:27.960Z,4.50
2019-05-07T02:39:24.771Z,4.63
2019-05-07T02:44:09.781Z,4.97
2019-05-07T02:49:03.724Z,5.03
2019-05-07T02:54:03.791Z,4.60
2019-05-07T02:58:48.457Z,4.40
2019-05-07T03:03:33.649Z,4.23
2019-05-07T03:08:18.438Z,4.90
2019-05-07T03:13:03.472Z,4.30
2019-05-07T03:17:48.368Z,5.00
2019-05-07T03:22:34.007Z,5.20
2019-05-07T03:27:23.494Z,5.13
2019-05-07T03:32:37.913Z,5.07
2019-05-07T03:37:24.851Z,5.40
2019-05-07T03:42:12.739Z,5.70
2019-05-07T03:47:14.438Z,5.00
2019-05-07T03:51:59.205Z,5.93
2019-05-07T03:56:43.990Z,5.70
2019-05-07T04:01:28.875Z,5.73
2019-05-07T04:06:14.925Z,6.07
2019-05-07T04:11:03.151Z,6.27
2019-05-07T04:15:47.362Z,6.27
2019-05-07T04:20:33.287Z,6.07
2019-05-07T04:25:35.923Z,6.13
2019-05-07T04:30:23.295Z,6.63
2019-05-07T04:35:12.969Z,6.77
2019-05-07T04:39:59.511Z,7.00
2019-05-07T04:44:44.379Z,6.47
2019-05-07T04:49:32.998Z,7.43
2019-05-07T04:54:16.365Z,7.10
2019-05-07T04:59:03.562Z,7.17
2019-05-07T05:03:47.616Z,6.43
2019-05-07T05:08:32.705Z,6.60
2019-05-07T05:13:17.674Z,6.57
2019-05-07T05:18:02.829Z,6.97
2019-05-07T05:23:08.323Z,7.53
2019-05-07T05:27:54.617Z,8.00
2019-05-07T05:32:39.399Z,7.83
2019-05-07T05:37:24.335Z,8.10
2019-05-07T05:42:37.042Z,7.93
2019-05-07T05:47:22.238Z,8.80
2019-05-07T05:52:27.941Z,8.90
2019-05-07T05:57:42.425Z,8.37
2019-05-07T06:02:45.124Z,8.83
2019-05-07T06:07:39.332Z,8.83
2019-05-07T06:12:34.875Z,8.10
2019-05-07T06:17:38.726Z,9.57
2019-05-07T06:22:37.796Z,9.30
2019-05-07T06:27:22.972Z,9.70
2019-05-07T06:32:11.997Z,8.70
2019-05-07T06:36:56.053Z,8.93
2019-05-07T06:41:58.625Z,9.07
2019-05-07T06:46:43.600Z,9.07
2019-05-07T06:51:38.241Z,9.90
2019-05-07T06:56:23.803Z,9.93
2019-05-07T07:01:33.220Z,10.47
2019-05-07T07:06:25.094Z,9.93
2019-05-07T07:11:22.296Z,10.43
2019-05-07T07:16:09.789Z,10.07
2019-05-07T07:20:54.455Z,9.60
2019-05-07T07:25:42.971Z,10.97
2019-05-07T07:30:49.878Z,9.37
2019-05-07T07:35:45.353Z,9.43
2019-05-07T07:40:45.212Z,10.77
2019-05-07T07:45:32.358Z,10.40
2019-05-07T07:50:17.030Z,10.17
2019-05-07T07:55:02.350Z,11.33
2019-05-07T08:00:03.672Z,11.03
2019-05-07T08:04:48.387Z,12.50
2019-05-07T08:09:33.997Z,12.50
2019-05-07T08:14:18.588Z,12.23
2019-05-07T08:19:17.558Z,12.77
2019-05-07T08:23:50.043Z,13.37
2019-05-07T08:28:34.719Z,13.67
2019-05-07T08:33:24.027Z,13.37
2019-05-07T08:38:09.187Z,13.87
2019-05-07T08:42:54.344Z,14.77
2019-05-07T08:47:42.946Z,15.63
2019-05-07T08:52:27.570Z,16.33
2019-05-07T08:57:12.425Z,15.57
2019-05-07T09:01:59.568Z,17.10
2019-05-07T09:06:44.240Z,16.53
2019-05-07T09:11:28.924Z,16.27
2019-05-07T09:16:13.720Z,15.70
2019-05-07T09:20:58.562Z,17.20
2019-05-07T09:25:48.642Z,17.87
2019-05-07T09:30:42.055Z,17.23
2019-05-07T09:35:32.245Z,18.00
2019-05-07T09:40:17.449Z,15.93
2019-05-07T09:45:02.219Z,18.73
2019-05-07T09:50:00.245Z,17.40
2019-05-07T09:54:36.307Z,17.80
2019-05-07T09:59:21.874Z,17.57
2019-05-07T10:04:07.935Z,18.17
2019-05-07T10:08:52.585Z,16.80
2019-05-07T10:13:47.469Z,16.27
2019-05-07T10:18:32.318Z,16.43
2019-05-07T10:23:23.383Z,17.37
2019-05-07T10:28:09.009Z,16.90
2019-05-07T10:32:53.961Z,17.17
2019-05-07T10:37:38.659Z,16.60
2019-05-07T10:42:23.689Z,18.63
2019-05-07T10:47:42.491Z,18.83
2019-05-07T10:52:27.478Z,18.70
2019-05-07T10:57:12.067Z,19.17
2019-05-07T11:02:02.929Z,15.80
2019-05-07T11:06:47.554Z,16.97
2019-05-07T11:11:32.340Z,15.73
2019-05-07T11:16:22.153Z,15.67
2019-05-07T11:21:06.942Z,14.53
2019-05-07T11:25:52.721Z,15.00
2019-05-07T11:30:37.769Z,13.87
2019-05-07T11:35:23.121Z,13.40
2019-05-07T11:40:08.412Z,13.13
2019-05-07T11:44:57.055Z,13.33
2019-05-07T11:49:59.374Z,13.50
2019-05-07T11:54:55.430Z,13.73
2019-05-07T11:59:55.916Z,12.90
2019-05-07T12:04:42.243Z,12.30
2019-05-07T12:09:27.383Z,11.30
2019-05-07T12:14:12.482Z,10.60
2019-05-07T12:18:57.290Z,10.00
2019-05-07T12:23:42.253Z,9.73
2019-05-07T12:28:27.077Z,9.97
2019-05-07T12:33:37.057Z,8.23
2019-05-07T12:38:21.974Z,7.33
2019-05-07T12:43:06.787Z,7.23
2019-05-07T12:47:52.972Z,6.63
2019-05-07T12:52:44.127Z,6.27
2019-05-07T12:57:28.941Z,5.90
2019-05-07T13:02:44.228Z,6.43
2019-05-07T13:08:04.489Z,5.37
2019-05-07T13:12:49.372Z,4.77
2019-05-07T13:17:34.093Z,5.00
2019-05-07T13:22:18.800Z,5.03
2019-05-07T13:27:06.574Z,3.93
2019-05-07T13:31:54.180Z,3.97
2019-05-07T13:36:42.579Z,3.87
2019-05-07T13:41:34.615Z,3.93
2019-05-07T13:46:19.620Z,3.10
2019-05-07T13:51:04.461Z,3.40
2019-05-07T13:55:49.430Z,3.23
2019-05-07T14:00:38.895Z,3.73
2019-05-07T14:05:23.461Z,3.80
2019-05-07T14:10:08.213Z,3.30
2019-05-07T14:14:53.338Z,3.20
2019-05-07T14:19:38.029Z,2.70
2019-05-07T14:24:23.159Z,3.20
2019-05-07T14:29:08.077Z,2.80
2019-05-07T14:34:04.151Z,3.13
2019-05-07T14:38:51.877Z,3.10
2019-05-07T14:43:45.169Z,3.00
2019-05-07T14:48:29.990Z,3.40
2019-05-07T14:53:14.777Z,2.90
2019-05-07T14:58:01.713Z,2.60
2019-05-07T15:02:49.977Z,3.00
2019-05-07T15:07:35.154Z,2.83
2019-05-07T15:12:20.128Z,2.63
2019-05-07T15:17:22.263Z,2.50
2019-05-07T15:22:45.433Z,4.83
2019-05-07T15:27:17.587Z,2.33
2019-05-07T15:32:12.603Z,2.47
2019-05-07T15:36:57.792Z,2.77
2019-05-07T15:41:42.994Z,3.00
2019-05-07T15:46:32.257Z,3.10
2019-05-07T15:51:18.614Z,4.73
2019-05-07T15:56:05.600Z,3.00
2019-05-07T16:00:53.111Z,2.80
2019-05-07T16:05:38.008Z,2.80
2019-05-07T16:10:23.315Z,2.77
2019-05-07T16:15:08.648Z,2.87
2019-05-07T16:19:56.105Z,2.97
2019-05-07T16:24:41.270Z,2.50
2019-05-07T16:29:25.868Z,3.53
2019-05-07T16:34:13.599Z,2.70
2019-05-07T16:38:58.483Z,3.23
2019-05-07T16:43:43.294Z,3.00
2019-05-07T16:48:28.077Z,3.10
2019-05-07T16:53:26.465Z,3.10
2019-05-07T16:58:20.476Z,2.90
2019-05-07T17:03:11.607Z,2.83
2019-05-07T17:08:15.185Z,2.97
2019-05-07T17:13:00.369Z,3.63
2019-05-07T17:17:45.318Z,3.27
2019-05-07T17:22:32.260Z,4.73
2019-05-07T17:27:17.539Z,4.90
2019-05-07T17:32:02.571Z,5.37
2019-05-07T17:36:47.864Z,5.30
2019-05-07T17:41:33.180Z,6.90
2019-05-07T17:46:18.512Z,6.00
2019-05-07T17:51:23.608Z,5.70
2019-05-07T17:56:10.347Z,6.27
2019-05-07T18:00:58.694Z,6.70
2019-05-07T18:05:43.767Z,7.07
2019-05-07T18:10:29.034Z,11.07
2019-05-07T18:15:14.498Z,11.33
2019-05-07T18:20:02.502Z,9.47
2019-05-07T18:24:47.813Z,6.57
2019-05-07T18:29:35.969Z,6.50
2019-05-07T18:34:21.114Z,7.20
2019-05-07T18:39:07.603Z,6.97
2019-05-07T18:43:54.595Z,6.73
2019-05-07T18:48:39.410Z,6.80
2019-05-07T18:53:24.550Z,7.47
2019-05-07T18:58:09.758Z,7.83
2019-05-07T19:02:55.087Z,8.00
2019-05-07T19:07:41.692Z,8.37
2019-05-07T19:12:34.070Z,7.40
2019-05-07T19:17:21.780Z,8.43
2019-05-07T19:22:06.234Z,8.50
2019-05-07T19:26:52.848Z,8.83
2019-05-07T19:31:38.351Z,9.03
2019-05-07T19:36:23.191Z,8.73
2019-05-07T19:41:08.150Z,9.40
2019-05-07T19:45:53.429Z,9.30
2019-05-07T19:50:39.103Z,9.43
2019-05-07T19:55:24.674Z,9.77
2019-05-07T20:00:12.128Z,10.60
2019-05-07T20:04:57.204Z,10.17
2019-05-07T20:09:42.875Z,9.63
2019-05-07T20:14:28.075Z,9.50
2019-05-07T20:19:13.512Z,8.87
2019-05-07T20:23:58.353Z,10.07
2019-05-07T20:28:43.514Z,10.00
2019-05-07T20:33:28.309Z,9.87
2019-05-07T20:38:13.135Z,10.27
2019-05-07T20:42:58.155Z,8.80
2019-05-07T20:47:43.345Z,10.07
2019-05-07T20:52:28.311Z,9.10
2019-05-07T20:57:16.389Z,10.07
2019-05-07T21:02:06.631Z,9.27
2019-05-07T21:06:52.560Z,10.13
2019-05-07T21:11:37.547Z,13.43
2019-05-07T21:16:22.549Z,12.37
2019-05-07T21:21:07.555Z,12.90
2019-05-07T21:25:53.125Z,11.70
2019-05-07T21:30:38.127Z,10.83
2019-05-07T21:35:23.597Z,10.03
2019-05-07T21:40:08.892Z,10.50
2019-05-07T21:44:53.982Z,9.90
2019-05-07T21:49:39.075Z,10.60
2019-05-07T21:54:38.886Z,10.20
2019-05-07T21:59:25.416Z,10.13
2019-05-07T22:04:12.816Z,10.70
2019-05-07T22:08:57.719Z,9.50
2019-05-07T22:13:43.606Z,10.90
2019-05-07T22:18:33.933Z,9.77
2019-05-07T22:23:18.534Z,9.80
2019-05-07T22:28:04.742Z,10.30
2019-05-07T22:32:57.747Z,10.57
2019-05-07T22:37:42.725Z,10.83
2019-05-07T22:42:27.837Z,11.07
2019-05-07T22:47:22.913Z,10.67
2019-05-07T22:52:07.958Z,10.93
2019-05-07T22:57:13.963Z,11.30
2019-05-07T23:01:56.818Z,11.10
2019-05-07T23:06:43.593Z,11.40
2019-05-07T23:11:28.628Z,12.20
2019-05-07T23:16:13.285Z,11.47
2019-05-07T23:21:00.299Z,11.53
2019-05-07T23:25:45.007Z,10.83
2019-05-07T23:30:29.806Z,11.00
2019-05-07T23:35:14.780Z,11.33
2019-05-07T23:40:03.051Z,10.77
2019-05-07T23:44:52.353Z,10.83
2019-05-07T23:49:36.847Z,10.80
2019-05-07T23:54:23.001Z,10.67
2019-05-07T23:59:07.893Z,11.13
